Time;durP1;ratioP1;P1;durP2;ratioP2;P2;SDS_P1;SDS_P2;PMS_P1;PMS_P2;Temp;Humidity;BMP_temperature;BMP_pressure;BME280_temperature;BME280_humidity;BME280_pressure;Samples;Min_cycle;Max_cycle;Signal;HPM_P1;HPM_P2
2022/12/27 00:00:46;;;;;;;1.35;0.40;;;9.30;87.60;;;;;;4977606;28;20418;-61
2022/12/27 00:03:11;;;;;;;1.00;0.60;;;9.20;87.40;;;;;;4974782;28;20038;-61
2022/12/27 00:05:40;;;;;;;1.60;0.50;;;9.20;87.30;;;;;;4979094;28;20069;-62
2022/12/27 00:08:06;;;;;;;0.70;0.50;;;9.20;87.10;;;;;;4978703;28;20046;-61
2022/12/27 00:10:32;;;;;;;2.50;0.60;;;9.10;87.30;;;;;;4979279;28;20027;-62
2022/12/27 00:12:57;;;;;;;1.73;0.47;;;9.10;86.90;;;;;;4963749;28;20089;-63
2022/12/27 00:15:23;;;;;;;2.25;0.40;;;9.10;86.60;;;;;;4982000;28;20117;-60
2022/12/27 00:17:49;;;;;;;1.88;0.80;;;9.00;86.20;;;;;;4977609;28;20089;-62
2022/12/27 00:20:15;;;;;;;2.85;0.75;;;9.00;85.40;;;;;;4980495;28;20383;-62
2022/12/27 00:22:40;;;;;;;0.70;0.50;;;8.90;84.60;;;;;;4979741;28;20038;-61
2022/12/27 00:25:07;;;;;;;1.98;0.75;;;8.90;84.30;;;;;;4977998;28;20457;-61
2022/12/27 00:27:32;;;;;;;2.25;0.80;;;8.80;84.10;;;;;;4977131;28;20112;-60
2022/12/27 00:29:58;;;;;;;2.03;0.60;;;8.70;84.30;;;;;;4980781;28;21477;-64
2022/12/27 00:32:23;;;;;;;1.92;0.80;;;8.70;84.20;;;;;;4980157;28;20081;-61
2022/12/27 00:34:49;;;;;;;1.77;0.85;;;8.60;84.50;;;;;;4984542;28;20030;-63
2022/12/27 00:37:15;;;;;;;1.40;0.65;;;8.60;84.10;;;;;;4979365;28;20035;-63
2022/12/27 00:39:40;;;;;;;3.67;0.50;;;8.50;83.80;;;;;;4980990;28;20058;-62
2022/12/27 00:42:06;;;;;;;0.55;0.47;;;8.50;83.60;;;;;;4981884;28;20065;-60
2022/12/27 00:44:31;;;;;;;1.20;0.68;;;8.40;83.30;;;;;;4983141;28;20058;-63
2022/12/27 00:46:57;;;;;;;1.60;0.50;;;8.40;82.90;;;;;;4981153;28;20038;-63
2022/12/27 00:49:22;;;;;;;1.67;0.50;;;8.40;83.30;;;;;;4979153;28;20092;-62
2022/12/27 00:51:48;;;;;;;2.60;0.57;;;8.40;82.70;;;;;;4981018;28;20660;-62
2022/12/27 00:54:14;;;;;;;1.27;0.63;;;8.40;82.30;;;;;;4980061;28;20125;-60
2022/12/27 00:56:39;;;;;;;3.28;0.50;;;8.30;82.00;;;;;;4979417;28;20413;-62
2022/12/27 00:59:05;;;;;;;0.50;0.40;;;8.30;81.80;;;;;;4974811;28;20097;-61
2022/12/27 01:01:34;;;;;;;5.00;0.65;;;8.20;80.70;;;;;;4978937;28;20027;-63
2022/12/27 01:04:00;;;;;;;1.67;0.55;;;8.20;80.10;;;;;;4981055;28;20034;-60
2022/12/27 01:06:31;;;;;;;0.98;0.50;;;8.10;80.50;;;;;;4979270;28;20140;-61
2022/12/27 01:08:58;;;;;;;2.15;0.70;;;8.10;80.00;;;;;;4984580;28;20042;-62
2022/12/27 01:11:25;;;;;;;2.80;0.60;;;8.00;80.30;;;;;;4974639;28;20046;-62
2022/12/27 01:13:53;;;;;;;1.50;0.77;;;8.00;80.20;;;;;;4974686;28;20049;-61
2022/12/27 01:16:21;;;;;;;2.33;0.57;;;7.90;80.00;;;;;;4979398;28;20506;-60
2022/12/27 01:18:47;;;;;;;1.13;0.80;;;7.90;80.30;;;;;;4983731;28;20047;-60
2022/12/27 01:21:15;;;;;;;2.67;0.70;;;7.80;80.60;;;;;;4980600;28;20044;-61
2022/12/27 01:23:41;;;;;;;0.63;0.60;;;7.80;80.80;;;;;;4980109;28;20034;-62
2022/12/27 01:26:10;;;;;;;0.70;0.50;;;7.70;81.00;;;;;;4979548;28;20085;-61
2022/12/27 01:28:36;;;;;;;3.47;0.60;;;7.70;81.00;;;;;;4981195;28;20772;-60
2022/12/27 01:31:10;;;;;;;1.58;0.60;;;7.70;81.20;;;;;;4977792;28;20121;-61
2022/12/27 01:33:36;;;;;;;2.23;0.70;;;7.60;81.20;;;;;;4979858;28;20585;-61
2022/12/27 01:36:20;;;;;;;1.40;0.77;;;7.50;81.30;;;;;;4982899;28;20458;-59
2022/12/27 01:38:47;;;;;;;2.38;0.70;;;7.50;80.80;;;;;;4981303;28;20058;-62
2022/12/27 01:44:38;;;;;;;1.40;0.82;;;7.50;81.50;;;;;;4980608;28;20046;-61
2022/12/27 01:47:25;;;;;;;1.25;0.70;;;7.40;81.00;;;;;;4977024;28;20486;-62
2022/12/27 01:49:59;;;;;;;2.80;0.80;;;7.40;81.50;;;;;;4978090;28;20125;-61
2022/12/27 01:52:32;;;;;;;3.63;0.70;;;7.30;81.90;;;;;;4979341;28;20070;-60
2022/12/27 01:55:06;;;;;;;1.63;0.60;;;7.30;81.90;;;;;;4979614;28;20030;-60
2022/12/27 01:57:31;;;;;;;2.22;0.60;;;7.30;82.10;;;;;;4979747;28;20633;-58
2022/12/27 01:59:57;;;;;;;2.00;0.70;;;7.20;82.40;;;;;;4980257;28;20049;-62
2022/12/27 02:02:23;;;;;;;1.65;0.65;;;7.20;82.60;;;;;;4976452;28;20546;-62
2022/12/27 02:04:48;;;;;;;2.83;1.08;;;7.20;82.70;;;;;;4980148;28;20122;-61
2022/12/27 02:07:14;;;;;;;1.98;0.88;;;7.20;82.90;;;;;;4976210;28;20066;-62
2022/12/27 02:09:47;;;;;;;1.75;0.90;;;7.10;82.90;;;;;;4980236;28;20521;-62
2022/12/27 02:12:13;;;;;;;2.38;0.93;;;7.10;83.10;;;;;;4977732;28;20082;-62
2022/12/27 02:14:40;;;;;;;1.65;0.80;;;7.00;83.40;;;;;;4981993;28;20046;-61
2022/12/27 02:17:09;;;;;;;2.95;0.90;;;7.00;83.50;;;;;;4975711;28;20038;-60
2022/12/27 02:20:06;;;;;;;2.88;1.10;;;7.00;83.70;;;;;;4977612;28;20038;-62
2022/12/27 02:25:37;;;;;;;;;;;6.90;84.00;;;;;;4982379;28;20037;-61
2022/12/27 02:28:40;;;;;;;3.03;0.88;;;6.90;83.90;;;;;;4978127;28;20326;-62
2022/12/27 02:31:26;;;;;;;3.80;1.10;;;6.90;84.00;;;;;;4975004;28;20034;-60
2022/12/27 02:33:54;;;;;;;3.70;0.88;;;6.80;84.00;;;;;;4979019;28;20023;-61
2022/12/27 02:36:27;;;;;;;3.35;0.93;;;6.80;84.30;;;;;;4980054;28;20031;-63
2022/12/27 02:38:56;;;;;;;4.88;0.73;;;6.70;84.10;;;;;;4976128;28;20031;-62
2022/12/27 02:53:11;;;;;;;1.80;0.90;;;6.60;84.00;;;;;;4980093;28;20085;-63
2022/12/27 02:59:13;;;;;;;2.40;0.93;;;6.60;84.00;;;;;;4979195;28;20150;-61
2022/12/27 03:05:25;;;;;;;3.33;0.90;;;6.50;83.70;;;;;;4981854;28;20093;-62
2022/12/27 03:08:11;;;;;;;4.60;0.95;;;6.50;83.70;;;;;;4980857;28;20506;-62
2022/12/27 03:16:56;;;;;;;2.78;0.80;;;6.40;83.60;;;;;;4977142;28;20102;-63
2022/12/27 03:25:27;;;;;;;2.03;0.90;;;6.30;84.20;;;;;;4954040;28;20132;-62
2022/12/27 03:33:31;;;;;;;4.63;1.20;;;6.20;84.10;;;;;;4978866;28;20041;-60
2022/12/27 03:39:04;;;;;;;0.95;0.60;;;6.20;83.60;;;;;;4939256;28;20026;-60
2022/12/27 03:44:24;;;;;;;1.45;0.70;;;6.20;83.70;;;;;;4980231;28;20050;-61
2022/12/27 03:46:55;;;;;;;2.92;0.77;;;6.10;83.70;;;;;;4978383;28;20050;-63
2022/12/27 03:49:32;;;;;;;1.40;0.90;;;6.10;83.70;;;;;;4963290;28;20042;-60
2022/12/27 03:52:06;;;;;;;3.67;0.80;;;6.10;83.50;;;;;;4981058;28;20046;-63
2022/12/27 03:54:40;;;;;;;2.15;0.70;;;6.10;83.60;;;;;;4982802;28;20050;-63
2022/12/27 03:57:15;;;;;;;3.53;1.08;;;6.10;83.50;;;;;;4980740;28;20093;-62
2022/12/27 03:59:43;;;;;;;0.88;0.60;;;6.10;83.30;;;;;;4979072;28;20034;-62
2022/12/27 04:02:09;;;;;;;0.95;0.70;;;6.10;83.60;;;;;;4978042;28;20031;-63
2022/12/27 04:04:35;;;;;;;2.95;0.80;;;6.10;83.80;;;;;;4984620;28;20038;-62
2022/12/27 04:07:00;;;;;;;2.60;0.90;;;6.10;83.70;;;;;;4983405;28;20118;-61
2022/12/27 04:36:52;;;;;;;4.65;1.05;;;6.00;83.00;;;;;;4981420;28;20548;-63
2022/12/27 04:39:18;;;;;;;2.42;0.90;;;5.90;83.00;;;;;;4966935;28;20034;-62
2022/12/27 04:55:29;;;;;;;19.13;6.93;;;5.80;83.70;;;;;;4986129;28;20252;-61
2022/12/27 04:57:56;;;;;;;28.70;11.20;;;5.80;83.50;;;;;;4985106;28;20286;-63
2022/12/27 05:03:14;;;;;;;8.50;4.30;;;5.80;83.90;;;;;;4979945;28;20461;-61
2022/12/27 05:05:42;;;;;;;11.52;4.57;;;5.80;83.90;;;;;;4983223;28;20042;-62
2022/12/27 05:16:21;;;;;;;6.37;3.70;;;5.70;83.70;;;;;;4978079;28;20092;-63
2022/12/27 05:18:47;;;;;;;7.97;3.75;;;5.70;83.70;;;;;;4979535;28;20278;-60
2022/12/27 05:21:12;;;;;;;7.20;3.97;;;5.70;83.50;;;;;;4979909;28;20409;-62
2022/12/27 05:26:25;;;;;;;3.97;2.72;;;5.60;83.50;;;;;;4980954;28;20045;-60
2022/12/27 05:28:52;;;;;;;6.93;3.30;;;5.60;83.40;;;;;;4978125;28;20038;-63
2022/12/27 05:31:18;;;;;;;5.95;3.28;;;5.60;83.30;;;;;;4977768;28;20096;-62
2022/12/27 05:33:43;;;;;;;6.95;3.50;;;5.40;83.30;;;;;;4982397;28;20494;-62
2022/12/27 05:36:09;;;;;;;6.00;3.95;;;5.50;83.10;;;;;;4982838;28;20041;-59
2022/12/27 05:38:35;;;;;;;8.50;4.03;;;5.50;83.20;;;;;;4980605;28;20105;-60
2022/12/27 05:41:01;;;;;;;6.15;3.95;;;5.50;83.30;;;;;;4974758;28;20403;-61
2022/12/27 05:43:28;;;;;;;3.97;2.53;;;5.40;83.30;;;;;;4981280;28;20430;-61
2022/12/27 05:45:54;;;;;;;2.17;1.83;;;5.40;83.20;;;;;;4977158;28;20126;-61
2022/12/27 05:48:22;;;;;;;4.10;2.13;;;5.30;82.70;;;;;;4978412;28;20060;-62
2022/12/27 05:50:47;;;;;;;3.33;1.77;;;5.30;82.80;;;;;;4979175;28;20031;-62
2022/12/27 05:53:13;;;;;;;5.85;2.13;;;5.20;82.90;;;;;;4980900;28;20062;-62
2022/12/27 05:55:39;;;;;;;3.33;2.10;;;5.20;83.00;;;;;;4978580;28;20442;-60
2022/12/27 05:58:07;;;;;;;2.63;1.98;;;5.20;83.20;;;;;;4979807;28;20121;-60
2022/12/27 06:00:33;;;;;;;3.00;1.35;;;5.10;84.20;;;;;;4979855;28;20100;-60
2022/12/27 06:02:58;;;;;;;2.08;1.42;;;5.10;83.20;;;;;;4979734;28;20506;-60
2022/12/27 06:05:24;;;;;;;3.38;1.40;;;5.00;82.80;;;;;;4983109;28;20138;-59
2022/12/27 06:07:49;;;;;;;3.58;1.65;;;4.90;83.00;;;;;;4980456;28;20109;-61
2022/12/27 06:10:15;;;;;;;2.63;2.13;;;4.90;83.70;;;;;;4981433;28;20037;-60
2022/12/27 06:12:40;;;;;;;3.63;2.00;;;4.90;84.00;;;;;;4978812;28;20488;-60
2022/12/27 06:15:10;;;;;;;3.13;2.58;;;4.80;83.70;;;;;;4981748;28;20046;-61
2022/12/27 06:17:36;;;;;;;4.97;2.60;;;4.80;83.20;;;;;;4978882;28;20061;-59
2022/12/27 06:20:01;;;;;;;5.13;2.53;;;4.70;83.60;;;;;;4977567;28;20177;-61
2022/12/27 06:22:27;;;;;;;3.08;2.17;;;4.70;83.20;;;;;;4981318;28;20426;-62
2022/12/27 06:24:53;;;;;;;3.88;2.30;;;4.60;83.30;;;;;;4979044;28;20031;-60
2022/12/27 06:27:18;;;;;;;3.90;1.80;;;4.60;83.40;;;;;;4975162;28;20030;-63
2022/12/27 06:29:44;;;;;;;2.40;1.75;;;4.50;83.60;;;;;;4977381;28;20038;-60
2022/12/27 06:32:09;;;;;;;2.60;1.45;;;4.50;83.60;;;;;;4980378;28;20092;-60
2022/12/27 06:34:35;;;;;;;2.58;1.30;;;4.40;83.70;;;;;;4980896;28;20030;-62
2022/12/27 06:37:01;;;;;;;3.22;1.77;;;4.40;83.80;;;;;;4967177;28;20038;-62
2022/12/27 06:39:26;;;;;;;2.65;1.70;;;4.30;83.70;;;;;;4981798;28;20043;-62
2022/12/27 06:41:54;;;;;;;3.55;1.88;;;4.30;83.80;;;;;;4980558;28;20058;-62
2022/12/27 06:44:19;;;;;;;1.90;1.30;;;4.20;83.90;;;;;;4985004;28;20501;-62
2022/12/27 06:46:45;;;;;;;2.75;1.20;;;4.20;84.50;;;;;;4977523;28;20049;-61
2022/12/27 06:49:10;;;;;;;2.60;1.05;;;4.20;84.50;;;;;;4977995;28;20046;-60
2022/12/27 06:51:36;;;;;;;1.98;1.33;;;4.20;84.70;;;;;;4973091;28;20054;-60
2022/12/27 06:54:02;;;;;;;1.45;1.35;;;4.10;84.90;;;;;;4981361;28;20502;-62
2022/12/27 06:56:27;;;;;;;2.70;1.10;;;4.20;85.40;;;;;;4979330;28;20033;-61
2022/12/27 06:58:53;;;;;;;3.10;1.77;;;4.20;85.30;;;;;;4979548;28;20080;-60
2022/12/27 07:01:22;;;;;;;2.45;1.98;;;4.20;84.90;;;;;;4980032;28;20045;-62
2022/12/27 07:03:53;;;;;;;2.42;1.65;;;4.20;84.60;;;;;;4984433;28;20141;-60
2022/12/27 07:06:19;;;;;;;2.50;1.90;;;4.10;84.30;;;;;;4979768;28;20568;-60
2022/12/27 07:08:46;;;;;;;3.20;1.60;;;4.10;84.20;;;;;;4981692;28;20074;-61
2022/12/27 07:11:14;;;;;;;3.55;2.03;;;4.10;84.00;;;;;;4973826;28;20154;-62
2022/12/27 07:13:42;;;;;;;2.40;1.83;;;4.00;84.00;;;;;;4977792;28;20030;-58
2022/12/27 07:16:10;;;;;;;2.15;1.77;;;4.00;84.50;;;;;;4977782;28;20606;-60
2022/12/27 07:18:37;;;;;;;3.28;1.70;;;4.00;84.70;;;;;;4976985;28;20042;-59
2022/12/27 07:21:07;;;;;;;3.95;1.67;;;4.00;84.40;;;;;;4978829;28;20031;-62
2022/12/27 07:23:33;;;;;;;4.60;1.70;;;3.90;84.30;;;;;;4976004;28;20046;-60
2022/12/27 07:26:10;;;;;;;3.45;1.83;;;3.90;84.40;;;;;;4977952;28;20149;-61
2022/12/27 07:28:36;;;;;;;3.75;1.80;;;3.80;84.40;;;;;;4978031;28;20054;-61
2022/12/27 07:31:07;;;;;;;3.88;2.10;;;3.80;84.60;;;;;;4977035;28;20283;-58
2022/12/27 07:33:33;;;;;;;2.83;1.90;;;3.70;84.60;;;;;;4979390;28;20035;-61
2022/12/27 07:36:03;;;;;;;3.85;1.83;;;3.70;84.60;;;;;;4980148;28;20134;-58
2022/12/27 07:38:28;;;;;;;6.35;1.95;;;3.60;84.60;;;;;;4977667;28;20114;-60
2022/12/27 07:40:58;;;;;;;2.90;2.05;;;3.60;84.70;;;;;;4983395;28;20184;-57
2022/12/27 07:43:24;;;;;;;6.22;2.15;;;3.60;84.80;;;;;;4981365;28;20030;-61
2022/12/27 07:45:50;;;;;;;2.10;1.77;;;3.50;84.90;;;;;;4981792;28;20049;-60
2022/12/27 07:48:15;;;;;;;4.32;1.70;;;3.50;85.20;;;;;;4983001;28;20042;-57
2022/12/27 07:50:41;;;;;;;1.80;1.50;;;3.40;85.40;;;;;;4986200;28;20038;-59
2022/12/27 07:53:07;;;;;;;2.55;1.60;;;3.50;85.80;;;;;;4982678;28;20070;-60
2022/12/27 07:55:32;;;;;;;6.57;1.80;;;3.50;86.20;;;;;;4982488;28;20026;-61
2022/12/27 07:57:58;;;;;;;2.20;1.80;;;3.50;86.60;;;;;;4983095;28;20501;-60
2022/12/27 08:00:23;;;;;;;4.72;2.20;;;3.50;86.90;;;;;;4986368;28;20035;-61
2022/12/27 08:02:49;;;;;;;8.20;4.90;;;3.60;86.80;;;;;;4982467;28;20027;-58
2022/12/27 08:05:15;;;;;;;22.77;10.93;;;3.60;86.80;;;;;;4984776;28;20107;-62
2022/12/27 08:07:40;;;;;;;40.80;17.55;;;3.60;86.70;;;;;;4983946;28;20666;-58
2022/12/27 08:10:06;;;;;;;35.25;14.77;;;3.70;86.60;;;;;;4981735;28;20046;-59
2022/12/27 08:12:32;;;;;;;25.17;12.18;;;3.70;86.60;;;;;;4974465;28;20100;-59
2022/12/27 08:14:58;;;;;;;12.35;6.95;;;3.70;86.70;;;;;;4982293;28;20038;-59
2022/12/27 08:17:28;;;;;;;9.60;4.55;;;3.70;86.80;;;;;;4978041;28;20118;-61
2022/12/27 08:19:54;;;;;;;8.93;3.70;;;3.80;86.90;;;;;;4982555;28;20522;-58
2022/12/27 08:22:22;;;;;;;6.82;3.70;;;3.80;87.20;;;;;;4980400;28;20035;-59
2022/12/27 08:24:47;;;;;;;5.53;2.95;;;3.80;87.40;;;;;;4979325;28;20421;-60
2022/12/27 08:27:23;;;;;;;4.20;2.70;;;3.90;87.70;;;;;;4982911;28;20049;-60
2022/12/27 08:29:49;;;;;;;4.50;2.20;;;3.90;87.70;;;;;;4979652;28;20616;-59
2022/12/27 08:32:15;;;;;;;7.60;2.75;;;4.00;87.70;;;;;;4973016;28;20043;-58
2022/12/27 08:34:40;;;;;;;4.75;2.28;;;4.00;87.70;;;;;;4981754;28;20045;-62
2022/12/27 08:37:07;;;;;;;3.88;2.85;;;4.10;87.70;;;;;;4966192;28;20038;-59
2022/12/27 08:39:32;;;;;;;5.35;3.25;;;4.10;87.50;;;;;;4983218;28;20036;-58
2022/12/27 08:41:58;;;;;;;11.60;5.75;;;4.10;87.50;;;;;;4982339;28;20034;-59
2022/12/27 08:44:24;;;;;;;17.58;7.68;;;4.20;87.30;;;;;;4981752;28;20038;-59
2022/12/27 08:46:50;;;;;;;11.18;6.15;;;4.20;87.20;;;;;;4978375;28;20043;-60
2022/12/27 08:49:15;;;;;;;10.98;5.47;;;4.20;87.10;;;;;;4981474;28;20045;-60
2022/12/27 08:51:41;;;;;;;7.47;4.47;;;4.30;87.30;;;;;;4985256;28;20042;-58
2022/12/27 08:54:06;;;;;;;5.78;3.53;;;4.30;87.60;;;;;;4981197;28;20061;-60
2022/12/27 08:56:32;;;;;;;5.57;3.13;;;4.30;87.60;;;;;;4981644;28;20132;-57
2022/12/27 08:58:57;;;;;;;5.90;2.90;;;4.40;87.50;;;;;;4980402;28;20023;-60
2022/12/27 09:01:24;;;;;;;5.65;2.88;;;4.40;87.50;;;;;;4978140;28;20134;-60
2022/12/27 09:03:50;;;;;;;8.13;2.90;;;4.40;87.50;;;;;;4974002;28;20038;-58
2022/12/27 09:06:19;;;;;;;5.45;3.00;;;4.50;87.50;;;;;;4981360;28;20121;-58
2022/12/27 09:08:46;;;;;;;4.45;3.55;;;4.50;87.50;;;;;;4979645;28;20046;-61
2022/12/27 09:11:15;;;;;;;7.60;4.47;;;4.60;87.60;;;;;;4980345;28;20034;-59
2022/12/27 09:13:41;;;;;;;9.55;4.72;;;4.60;87.70;;;;;;4975803;28;20117;-61
2022/12/27 09:16:10;;;;;;;6.70;4.13;;;4.70;87.70;;;;;;4975538;28;20038;-60
2022/12/27 09:18:37;;;;;;;5.00;2.88;;;4.70;87.50;;;;;;4979614;28;20104;-61
2022/12/27 09:21:08;;;;;;;5.78;3.35;;;4.80;87.50;;;;;;4978496;28;20034;-59
2022/12/27 09:23:35;;;;;;;7.53;3.95;;;4.80;87.30;;;;;;4981039;28;20406;-59
2022/12/27 09:26:06;;;;;;;5.93;3.30;;;4.90;87.30;;;;;;4985538;28;20039;-60
2022/12/27 09:28:32;;;;;;;6.82;2.88;;;4.90;87.30;;;;;;4978958;28;20490;-61
2022/12/27 09:30:57;;;;;;;4.60;3.17;;;5.00;87.30;;;;;;4978925;28;20081;-59
2022/12/27 09:33:23;;;;;;;6.70;3.38;;;5.00;87.20;;;;;;4984636;28;20098;-61
2022/12/27 09:35:49;;;;;;;4.05;2.92;;;5.10;87.30;;;;;;4985148;28;20035;-60
2022/12/27 09:38:14;;;;;;;5.68;2.85;;;5.20;87.30;;;;;;4984776;28;20031;-59
2022/12/27 09:40:51;;;;;;;3.95;2.60;;;5.20;87.20;;;;;;4984462;28;20026;-60
2022/12/27 09:43:20;;;;;;;9.38;3.80;;;5.30;87.20;;;;;;4978521;28;20130;-59
2022/12/27 09:45:52;;;;;;;6.32;4.10;;;5.40;87.20;;;;;;4980781;28;20161;-59
2022/12/27 09:48:32;;;;;;;4.97;3.25;;;5.40;87.00;;;;;;4982553;28;20077;-60
2022/12/27 09:51:04;;;;;;;7.30;3.42;;;5.40;87.00;;;;;;4980184;28;20026;-60
2022/12/27 09:53:50;;;;;;;4.75;2.90;;;5.50;87.80;;;;;;4973501;28;20038;-60
2022/12/27 09:56:26;;;;;;;5.07;3.85;;;5.60;87.00;;;;;;4960403;28;20477;-62
2022/12/27 09:58:57;;;;;;;4.78;2.55;;;5.60;87.10;;;;;;4970358;28;20038;-60
2022/12/27 10:01:39;;;;;;;2.22;1.75;;;5.70;87.20;;;;;;4962774;28;20473;-60
2022/12/27 10:04:11;;;;;;;3.97;2.22;;;5.80;86.70;;;;;;4966867;28;20195;-60
2022/12/27 10:06:53;;;;;;;4.72;2.40;;;5.90;86.90;;;;;;4976278;28;20039;-59
2022/12/27 10:09:36;;;;;;;3.47;2.13;;;5.90;87.00;;;;;;4973337;28;20085;-62
2022/12/27 10:12:13;;;;;;;6.47;2.22;;;6.00;86.80;;;;;;4972718;28;20035;-61
2022/12/27 10:14:58;;;;;;;3.75;2.30;;;6.10;86.60;;;;;;4979924;28;20043;-61
2022/12/27 10:17:35;;;;;;;3.03;2.20;;;6.20;86.20;;;;;;4977152;28;20126;-63
2022/12/27 10:20:38;;;;;;;4.38;1.98;;;6.30;86.30;;;;;;4977417;28;20042;-60
2022/12/27 10:23:09;;;;;;;3.35;1.80;;;6.40;86.00;;;;;;4974364;28;20069;-62
2022/12/27 10:25:37;;;;;;;2.92;1.60;;;6.40;86.20;;;;;;4961949;28;20035;-62
2022/12/27 10:28:37;;;;;;;5.15;2.28;;;6.50;86.30;;;;;;4979970;28;20506;-61
2022/12/27 10:31:04;;;;;;;4.25;1.33;;;6.60;85.90;;;;;;4976020;28;20069;-62
2022/12/27 10:33:32;;;;;;;5.63;1.23;;;6.70;86.40;;;;;;4983745;28;20105;-61
2022/12/27 10:35:59;;;;;;;2.72;1.25;;;6.80;86.50;;;;;;4969109;28;20031;-63
2022/12/27 10:38:32;;;;;;;2.33;1.02;;;6.90;86.40;;;;;;4969469;28;20410;-64
2022/12/27 10:41:28;;;;;;;2.95;1.20;;;7.00;86.00;;;;;;4972892;28;20113;-62
2022/12/27 10:43:54;;;;;;;3.08;1.30;;;7.10;85.70;;;;;;4970819;28;20568;-60
2022/12/27 10:46:24;;;;;;;4.32;1.02;;;7.20;86.00;;;;;;4969181;28;20097;-63
2022/12/27 10:48:58;;;;;;;2.30;0.93;;;7.40;85.80;;;;;;4978078;28;20549;-63
2022/12/27 10:51:27;;;;;;;1.42;1.15;;;7.50;85.30;;;;;;4971903;28;20607;-63
2022/12/27 10:53:58;;;;;;;2.22;0.95;;;7.60;85.40;;;;;;4974764;28;20104;-62
2022/12/27 10:56:34;;;;;;;1.48;0.80;;;7.70;85.30;;;;;;4966840;28;20034;-63
2022/12/27 10:59:15;;;;;;;4.25;1.20;;;7.80;84.60;;;;;;4973424;28;20038;-62
2022/12/27 11:01:46;;;;;;;2.63;0.93;;;7.90;84.60;;;;;;4970704;28;20403;-62
2022/12/27 11:04:18;;;;;;;2.35;0.95;;;8.00;85.00;;;;;;4977860;28;20519;-60
2022/12/27 11:06:46;;;;;;;2.05;1.00;;;8.00;84.50;;;;;;4975836;28;20046;-60
2022/12/27 11:09:28;;;;;;;2.08;1.02;;;8.10;84.30;;;;;;4979915;28;20049;-64
2022/12/27 11:12:27;;;;;;;3.10;1.23;;;8.20;84.30;;;;;;4975671;28;20034;-61
2022/12/27 11:15:00;;;;;;;1.67;0.90;;;8.30;83.50;;;;;;4979326;28;20084;-62
2022/12/27 11:17:41;;;;;;;3.00;0.90;;;8.40;83.80;;;;;;4979013;28;20118;-63
2022/12/27 11:20:36;;;;;;;2.63;0.90;;;8.50;83.40;;;;;;4978272;28;20136;-64
2022/12/27 11:23:08;;;;;;;2.45;0.98;;;8.60;82.20;;;;;;4974496;28;20034;-62
2022/12/27 11:25:35;;;;;;;2.95;0.88;;;8.60;82.90;;;;;;4977440;28;20042;-62
2022/12/27 11:28:12;;;;;;;2.70;1.05;;;8.70;83.10;;;;;;4975871;28;20041;-64
2022/12/27 11:30:40;;;;;;;2.17;1.00;;;8.80;82.60;;;;;;4977291;28;20038;-61
2022/12/27 11:33:22;;;;;;;2.03;0.88;;;8.90;82.70;;;;;;4976953;28;20041;-62
2022/12/27 11:35:51;;;;;;;1.80;1.00;;;8.90;81.60;;;;;;4966510;28;20039;-63
2022/12/27 11:38:24;;;;;;;4.97;0.82;;;9.00;81.90;;;;;;4973411;28;20300;-59
2022/12/27 11:41:08;;;;;;;1.65;0.73;;;9.00;81.50;;;;;;4977606;28;20533;-62
2022/12/27 11:43:48;;;;;;;2.05;0.80;;;9.10;80.00;;;;;;4974627;28;20039;-64
2022/12/27 11:46:27;;;;;;;1.25;0.68;;;9.10;78.80;;;;;;4973642;28;20037;-63
2022/12/27 11:48:59;;;;;;;1.98;1.02;;;9.10;78.60;;;;;;4975494;28;20401;-59
2022/12/27 11:51:53;;;;;;;1.55;0.90;;;9.10;79.20;;;;;;4958533;28;20046;-63
2022/12/27 11:54:42;;;;;;;3.08;1.00;;;9.20;79.10;;;;;;4976216;28;20062;-62
2022/12/27 11:57:13;;;;;;;1.95;0.75;;;9.10;78.30;;;;;;4976882;28;20035;-62
2022/12/27 11:59:42;;;;;;;2.13;1.00;;;9.20;79.30;;;;;;4977139;28;20125;-60
2022/12/27 12:02:58;;;;;;;1.50;0.90;;;9.20;79.80;;;;;;4971540;28;20042;-64
2022/12/27 12:05:40;;;;;;;2.67;1.00;;;9.20;79.10;;;;;;4955421;28;20114;-61
2022/12/27 12:08:37;;;;;;;1.48;1.15;;;9.30;79.80;;;;;;4976398;28;20050;-61
2022/12/27 12:11:17;;;;;;;2.80;1.10;;;9.40;79.30;;;;;;4970641;28;20449;-64
2022/12/27 12:13:51;;;;;;;3.10;0.90;;;9.40;79.40;;;;;;4975927;28;20038;-63
2022/12/27 12:16:42;;;;;;;2.55;1.10;;;9.40;79.30;;;;;;4974709;28;20038;-60
2022/12/27 12:19:37;;;;;;;3.65;1.10;;;9.50;78.30;;;;;;4977878;28;20041;-62
2022/12/27 12:22:28;;;;;;;4.45;0.90;;;9.50;78.60;;;;;;4975117;28;20117;-62
2022/12/27 12:25:08;;;;;;;2.92;0.93;;;9.60;78.10;;;;;;4974460;28;20461;-61
2022/12/27 12:27:46;;;;;;;2.33;0.90;;;9.60;78.80;;;;;;4976876;28;20037;-62
2022/12/27 12:30:38;;;;;;;4.05;1.10;;;9.60;78.00;;;;;;4977559;28;20406;-63
2022/12/27 12:33:14;;;;;;;1.92;1.00;;;9.70;77.70;;;;;;4976017;28;20430;-62
2022/12/27 12:35:55;;;;;;;2.33;1.00;;;9.70;77.50;;;;;;4977281;28;20035;-62
2022/12/27 12:38:22;;;;;;;1.80;0.88;;;9.70;77.50;;;;;;4980520;28;20584;-60
2022/12/27 12:40:56;;;;;;;2.35;0.98;;;9.70;77.90;;;;;;4976421;28;20046;-62
2022/12/27 12:43:49;;;;;;;2.35;1.10;;;9.70;77.50;;;;;;4976663;28;20410;-62
2022/12/27 12:46:39;;;;;;;2.10;0.95;;;9.80;76.80;;;;;;4979183;28;20058;-60
2022/12/27 12:49:23;;;;;;;2.65;0.90;;;9.80;77.30;;;;;;4976222;28;20046;-61
2022/12/27 12:52:01;;;;;;;4.18;0.90;;;9.80;76.40;;;;;;4979095;28;20046;-64
2022/12/27 12:54:27;;;;;;;2.85;1.13;;;9.90;76.10;;;;;;4980135;28;20026;-61
2022/12/27 12:57:26;;;;;;;4.30;1.20;;;9.80;76.60;;;;;;4978428;28;20042;-62
2022/12/27 13:00:08;;;;;;;1.45;1.08;;;9.80;75.70;;;;;;4977023;28;20042;-63
2022/12/27 13:03:07;;;;;;;1.63;1.20;;;9.90;76.10;;;;;;4977656;28;20545;-60
2022/12/27 13:06:10;;;;;;;1.48;0.80;;;9.90;75.30;;;;;;4974456;28;20507;-62
2022/12/27 13:08:51;;;;;;;1.63;0.70;;;9.90;74.40;;;;;;4978822;28;20050;-61
2022/12/27 13:11:52;;;;;;;1.45;0.65;;;9.90;74.90;;;;;;4973599;28;20033;-62
2022/12/27 13:14:36;;;;;;;2.47;0.70;;;9.90;74.90;;;;;;4925138;28;20040;-61
2022/12/27 13:17:18;;;;;;;2.28;0.95;;;9.90;75.40;;;;;;4959231;28;20513;-60
2022/12/27 13:19:58;;;;;;;1.90;0.50;;;9.90;75.10;;;;;;4975516;28;20145;-63
2022/12/27 13:22:53;;;;;;;1.15;0.43;;;9.90;74.90;;;;;;4975016;28;20035;-61
2022/12/27 13:25:55;;;;;;;1.80;0.60;;;9.90;73.60;;;;;;4937212;28;20057;-62
2022/12/27 13:28:25;;;;;;;2.75;0.70;;;9.90;73.40;;;;;;4977170;28;20538;-61
2022/12/27 13:31:28;;;;;;;3.90;0.50;;;9.90;74.90;;;;;;4974087;28;20566;-61
2022/12/27 13:34:21;;;;;;;1.63;0.73;;;9.90;73.50;;;;;;4975545;28;20405;-63
2022/12/27 13:37:17;;;;;;;2.55;0.80;;;9.90;74.00;;;;;;4973020;28;20038;-62
2022/12/27 13:40:08;;;;;;;1.80;0.82;;;9.90;73.40;;;;;;4978037;28;20031;-62
2022/12/27 13:43:13;;;;;;;2.15;0.60;;;9.90;73.60;;;;;;4975604;28;20089;-61
2022/12/27 13:46:08;;;;;;;2.53;0.90;;;9.90;72.80;;;;;;4975970;28;20062;-64
2022/12/27 13:49:17;;;;;;;1.67;0.95;;;9.90;73.50;;;;;;4974917;28;20030;-63
2022/12/27 13:51:47;;;;;;;2.08;0.90;;;9.80;73.00;;;;;;4940220;28;20030;-63
2022/12/27 13:54:37;;;;;;;3.63;0.90;;;9.80;74.40;;;;;;4975630;28;20038;-63
2022/12/27 13:57:24;;;;;;;3.40;0.70;;;9.80;73.20;;;;;;4969137;28;20081;-64
2022/12/27 13:59:59;;;;;;;3.65;1.05;;;9.70;73.90;;;;;;4973844;28;20081;-63
2022/12/27 14:02:31;;;;;;;2.55;1.05;;;9.70;74.30;;;;;;4973296;28;20050;-65
2022/12/27 14:05:15;;;;;;;2.72;1.10;;;9.60;73.80;;;;;;4976435;28;20167;-61
2022/12/27 14:08:09;;;;;;;2.22;0.85;;;9.70;73.30;;;;;;4974081;28;20092;-62
2022/12/27 14:10:36;;;;;;;2.05;1.30;;;9.70;72.90;;;;;;4971420;28;20039;-64
2022/12/27 14:13:02;;;;;;;5.22;1.00;;;9.60;74.20;;;;;;4975138;28;20046;-63
2022/12/27 14:15:36;;;;;;;3.13;0.73;;;9.60;74.30;;;;;;4976086;28;22154;-63
2022/12/27 14:18:31;;;;;;;2.13;0.80;;;9.60;73.60;;;;;;4972928;28;20089;-61
2022/12/27 14:21:15;;;;;;;1.33;0.90;;;9.60;73.90;;;;;;4971275;28;20035;-64
2022/12/27 14:24:02;;;;;;;3.13;1.20;;;9.60;74.30;;;;;;4972274;28;20121;-63
2022/12/27 14:26:34;;;;;;;3.65;0.98;;;9.60;75.00;;;;;;4972579;28;20458;-63
2022/12/27 14:29:26;;;;;;;2.45;1.23;;;9.60;74.40;;;;;;4976504;28;20113;-62
2022/12/27 14:32:12;;;;;;;4.57;1.50;;;9.60;74.00;;;;;;4973460;28;20119;-63
2022/12/27 14:35:27;;;;;;;3.28;1.23;;;9.50;74.20;;;;;;4976384;28;20039;-63
2022/12/27 14:37:56;;;;;;;2.15;1.27;;;9.50;73.50;;;;;;4965268;28;20038;-64
2022/12/27 14:40:59;;;;;;;4.57;1.30;;;9.50;74.70;;;;;;4973985;28;21195;-62
2022/12/27 14:43:56;;;;;;;2.00;1.08;;;9.50;74.00;;;;;;4976584;28;20387;-63
2022/12/27 14:47:02;;;;;;;2.72;0.98;;;9.40;74.20;;;;;;4970160;28;20045;-63
2022/12/27 14:50:05;;;;;;;2.40;1.20;;;9.40;74.20;;;;;;4973485;28;20055;-63
2022/12/27 14:52:30;;;;;;;11.57;1.70;;;9.40;74.40;;;;;;4971760;28;20039;-64
2022/12/27 14:55:19;;;;;;;4.22;1.77;;;9.40;75.60;;;;;;4977549;28;20049;-65
2022/12/27 14:58:05;;;;;;;2.75;1.45;;;9.30;74.60;;;;;;4968107;28;20100;-61
2022/12/27 15:01:00;;;;;;;7.80;4.50;;;9.20;74.60;;;;;;4975388;28;20031;-61
2022/12/27 15:04:04;;;;;;;5.87;3.53;;;9.20;74.60;;;;;;4974006;28;20577;-61
2022/12/27 15:07:05;;;;;;;17.88;10.02;;;9.20;74.60;;;;;;4975079;28;20397;-60
2022/12/27 15:09:39;;;;;;;6.65;4.75;;;9.10;75.00;;;;;;4928562;28;20077;-62
2022/12/27 15:12:13;;;;;;;8.02;5.30;;;9.10;75.00;;;;;;4970203;28;20039;-62
2022/12/27 15:15:05;;;;;;;8.27;5.45;;;9.10;74.90;;;;;;4975011;28;20138;-60